createdAt,value
2019-04-14T00:00:47.643Z,101669.30
2019-04-14T00:03:28.225Z,101666.67
2019-04-14T00:06:02.689Z,101661.23
2019-04-14T00:08:34.810Z,101660.67
2019-04-14T00:11:06.652Z,101652.66
2019-04-14T00:13:39.272Z,101656.19
2019-04-14T00:16:11.724Z,101654.85
2019-04-14T00:18:44.740Z,101656.42
2019-04-14T00:21:17.277Z,101657.54
2019-04-14T00:23:50.152Z,101644.93
2019-04-14T00:26:29.731Z,101644.25
2019-04-14T00:29:02.648Z,101649.98
2019-04-14T00:31:34.972Z,101649.74
2019-04-14T00:34:20.708Z,101639.31
2019-04-14T00:37:29.528Z,101635.75
2019-04-14T00:40:15.017Z,101638.21
2019-04-14T00:43:04.927Z,101629.84
2019-04-14T00:45:49.934Z,101619.97
2019-04-14T00:48:22.627Z,101622.95
2019-04-14T00:50:55.915Z,101614.70
2019-04-14T00:53:29.525Z,101620.09
2019-04-14T00:56:01.958Z,101622.91
2019-04-14T00:58:34.300Z,101620.80
2019-04-14T01:01:07.002Z,101623.55
2019-04-14T01:03:39.435Z,101631.16
2019-04-14T01:06:12.244Z,101632.25
2019-04-14T01:08:44.553Z,101618.61
2019-04-14T01:11:16.640Z,101626.63
2019-04-14T01:13:48.675Z,101623.47
2019-04-14T01:16:23.878Z,101624.24
2019-04-14T01:18:55.851Z,101621.83
2019-04-14T01:21:28.547Z,101614.34
2019-04-14T01:24:01.319Z,101618.23
2019-04-14T01:26:33.252Z,101620.37
2019-04-14T01:29:05.842Z,101618.11
2019-04-14T01:31:38.230Z,101622.11
2019-04-14T01:34:10.788Z,101621.98
2019-04-14T01:36:43.167Z,101619.31
2019-04-14T01:39:15.453Z,101617.83
2019-04-14T01:41:47.877Z,101613.45
2019-04-14T01:44:19.933Z,101612.32
2019-04-14T01:46:52.133Z,101616.13
2019-04-14T01:49:24.711Z,101616.66
2019-04-14T01:52:21.401Z,101618.52
2019-04-14T01:55:13.366Z,101615.72
2019-04-14T01:58:14.286Z,101616.33
2019-04-14T02:00:55.900Z,101608.88
2019-04-14T02:03:28.172Z,101603.22
2019-04-14T02:06:00.384Z,101610.41
2019-04-14T02:08:32.906Z,101610.89
2019-04-14T02:11:05.323Z,101604.74
2019-04-14T02:13:37.541Z,101609.00
2019-04-14T02:16:18.818Z,101608.95
2019-04-14T02:18:44.909Z,101606.05
2019-04-14T02:21:17.877Z,101601.56
2019-04-14T02:23:49.901Z,101603.47
2019-04-14T02:26:22.016Z,101604.39
2019-04-14T02:28:54.989Z,101602.38
2019-04-14T02:31:56.834Z,101606.66
2019-04-14T02:34:34.673Z,101596.91
2019-04-14T02:37:05.338Z,101594.93
2019-04-14T02:39:48.322Z,101600.91
2019-04-14T02:44:45.782Z,101597.20
2019-04-14T02:47:36.898Z,101603.06
2019-04-14T02:49:51.217Z,101603.26
2019-04-14T02:52:30.445Z,101613.13
2019-04-14T02:57:33.935Z,101615.16
2019-04-14T03:02:38.925Z,101614.59
2019-04-14T03:05:09.671Z,101606.70
2019-04-14T03:07:46.889Z,101610.19
2019-04-14T03:10:22.515Z,101615.52
2019-04-14T03:12:57.851Z,101610.19
2019-04-14T03:15:33.306Z,101616.70
2019-04-14T03:21:15.446Z,101619.70
2019-04-14T03:23:56.414Z,101622.33
2019-04-14T03:29:36.429Z,101621.72
2019-04-14T03:32:23.606Z,101621.27
2019-04-14T03:34:55.197Z,101617.67
2019-04-14T03:37:39.637Z,101621.80
2019-04-14T03:39:51.413Z,101613.83
2019-04-14T03:42:28.849Z,101618.52
2019-04-14T03:44:59.019Z,101617.11
2019-04-14T03:50:08.387Z,101613.83
2019-04-14T03:52:50.062Z,101616.58
2019-04-14T03:55:10.110Z,101614.36
2019-04-14T03:57:21.502Z,101616.94
2019-04-14T03:59:54.180Z,101611.55
2019-04-14T04:02:27.137Z,101609.94
2019-04-14T04:04:59.866Z,101611.31
2019-04-14T04:07:32.269Z,101609.05
2019-04-14T04:10:13.556Z,101606.50
2019-04-14T04:12:46.471Z,101614.87
2019-04-14T04:15:19.233Z,101621.26
2019-04-14T04:17:56.050Z,101615.72
2019-04-14T04:20:52.851Z,101620.66
2019-04-14T04:23:49.615Z,101620.62
2019-04-14T04:26:30.641Z,101627.58
2019-04-14T04:29:24.477Z,101623.30
2019-04-14T04:32:12.127Z,101623.02
2019-04-14T04:35:04.213Z,101626.45
2019-04-14T04:38:14.038Z,101625.32
2019-04-14T04:40:46.798Z,101624.52
2019-04-14T04:43:19.451Z,101625.80
2019-04-14T04:45:51.692Z,101625.41
2019-04-14T04:48:24.199Z,101625.94
2019-04-14T04:50:58.582Z,101625.41
2019-04-14T04:53:30.978Z,101636.33
2019-04-14T04:56:03.634Z,101631.80
2019-04-14T04:58:35.467Z,101645.08
2019-04-14T05:01:07.724Z,101647.55
2019-04-14T05:03:40.688Z,101649.36
2019-04-14T05:07:08.054Z,101652.72
2019-04-14T05:10:14.188Z,101652.23
2019-04-14T05:13:07.228Z,101649.76
2019-04-14T05:15:58.234Z,101658.38
2019-04-14T05:18:31.273Z,101654.24
2019-04-14T05:21:03.956Z,101659.82
2019-04-14T05:23:36.724Z,101656.98
2019-04-14T05:26:09.183Z,101665.09
2019-04-14T05:28:41.645Z,101662.50
2019-04-14T05:31:14.327Z,101666.55
2019-04-14T05:33:46.898Z,101669.38
2019-04-14T05:36:19.788Z,101673.66
2019-04-14T05:38:51.828Z,101673.01
2019-04-14T05:41:24.570Z,101683.38
2019-04-14T05:43:59.909Z,101680.87
2019-04-14T05:46:30.022Z,101682.44
2019-04-14T05:49:02.198Z,101685.70
2019-04-14T05:51:35.065Z,101685.63
2019-04-14T05:54:07.840Z,101690.60
2019-04-14T05:56:40.749Z,101690.13
2019-04-14T05:59:13.484Z,101688.67
2019-04-14T06:01:46.519Z,101692.87
2019-04-14T06:04:18.402Z,101687.92
2019-04-14T06:06:50.276Z,101691.19
2019-04-14T06:09:22.332Z,101690.84
2019-04-14T06:11:55.934Z,101690.66
2019-04-14T06:14:28.168Z,101701.33
2019-04-14T06:16:59.849Z,101700.52
2019-04-14T06:19:38.035Z,101697.98
2019-04-14T06:22:06.137Z,101704.48
2019-04-14T06:24:37.850Z,101702.92
2019-04-14T06:27:09.542Z,101704.39
2019-04-14T06:29:41.317Z,101700.87
2019-04-14T06:32:37.732Z,101695.09
2019-04-14T06:35:28.059Z,101697.80
2019-04-14T06:38:07.865Z,101695.02
2019-04-14T06:40:53.009Z,101694.67
2019-04-14T06:43:24.961Z,101696.01
2019-04-14T06:45:56.755Z,101699.25
2019-04-14T06:48:28.571Z,101711.57
2019-04-14T06:51:00.258Z,101726.17
2019-04-14T06:53:32.078Z,101717.52
2019-04-14T06:56:03.936Z,101718.65
2019-04-14T06:58:35.779Z,101720.95
2019-04-14T07:01:07.564Z,101728.44
2019-04-14T07:03:39.491Z,101730.77
2019-04-14T07:06:11.352Z,101726.50
2019-04-14T07:08:43.151Z,101735.08
2019-04-14T07:11:15.004Z,101745.73
2019-04-14T07:13:48.174Z,101736.69
2019-04-14T07:16:20.081Z,101739.45
2019-04-14T07:18:51.956Z,101740.62
2019-04-14T07:21:23.735Z,101737.56
2019-04-14T07:23:55.596Z,101747.44
2019-04-14T07:26:27.284Z,101738.19
2019-04-14T07:28:59.145Z,101748.56
2019-04-14T07:31:52.493Z,101750.66
2019-04-14T07:34:43.300Z,101753.56
2019-04-14T07:37:36.825Z,101748.21
2019-04-14T07:40:30.478Z,101759.02
2019-04-14T07:43:21.144Z,101756.34
2019-04-14T07:46:30.170Z,101756.44
2019-04-14T07:49:19.162Z,101756.30
2019-04-14T07:52:23.694Z,101757.94
2019-04-14T07:55:20.197Z,101759.58
2019-04-14T07:58:14.387Z,101762.49
2019-04-14T08:00:54.351Z,101761.16
2019-04-14T08:03:39.216Z,101755.45
2019-04-14T08:06:10.905Z,101757.19
2019-04-14T08:08:42.581Z,101759.92
2019-04-14T08:11:14.282Z,101750.97
2019-04-14T08:13:46.160Z,101749.73
2019-04-14T08:16:17.858Z,101750.44
2019-04-14T08:18:49.707Z,101754.48
2019-04-14T08:21:21.880Z,101755.78
2019-04-14T08:23:53.735Z,101754.53
2019-04-14T08:26:25.534Z,101762.47
2019-04-14T08:28:57.297Z,101756.23
2019-04-14T08:31:28.978Z,101760.19
2019-04-14T08:34:00.762Z,101758.69
2019-04-14T08:36:33.993Z,101759.64
2019-04-14T08:39:07.024Z,101757.52
2019-04-14T08:42:07.245Z,101767.39
2019-04-14T08:44:42.744Z,101761.28
2019-04-14T08:47:45.832Z,101764.59
2019-04-14T08:50:23.551Z,101765.53
2019-04-14T08:53:11.980Z,101769.01
2019-04-14T08:55:53.417Z,101770.33
2019-04-14T08:58:47.178Z,101773.77
2019-04-14T09:01:25.659Z,101766.86
2019-04-14T09:04:03.210Z,101767.93
2019-04-14T09:06:40.338Z,101767.56
2019-04-14T09:09:33.789Z,101771.09
2019-04-14T09:12:17.234Z,101765.27
2019-04-14T09:14:56.854Z,101765.94
2019-04-14T09:17:22.760Z,101767.23
2019-04-14T09:19:54.805Z,101763.67
2019-04-14T09:22:26.628Z,101766.05
2019-04-14T09:24:59.050Z,101763.22
2019-04-14T09:27:31.187Z,101757.12
2019-04-14T09:30:03.102Z,101761.75
2019-04-14T09:32:35.201Z,101767.19
2019-04-14T09:35:07.367Z,101763.73
2019-04-14T09:37:39.136Z,101765.37
2019-04-14T09:40:11.768Z,101761.23
2019-04-14T09:42:43.622Z,101759.44
2019-04-14T09:45:15.420Z,101764.80
2019-04-14T09:47:47.200Z,101761.23
2019-04-14T09:50:19.947Z,101760.64
2019-04-14T09:52:51.932Z,101757.41
2019-04-14T09:55:23.748Z,101762.80
2019-04-14T09:57:56.644Z,101761.69
2019-04-14T10:00:28.426Z,101763.09
2019-04-14T10:03:00.381Z,101760.78
2019-04-14T10:05:33.249Z,101763.08
2019-04-14T10:08:05.054Z,101767.88
2019-04-14T10:10:36.905Z,101768.25
2019-04-14T10:13:08.833Z,101765.58
2019-04-14T10:15:40.613Z,101763.65
2019-04-14T10:18:12.431Z,101771.58
2019-04-14T10:20:44.234Z,101773.48
2019-04-14T10:23:16.045Z,101769.37
2019-04-14T10:25:47.916Z,101771.31
2019-04-14T10:28:19.714Z,101777.50
2019-04-14T10:30:51.888Z,101767.66
2019-04-14T10:33:23.649Z,101764.89
2019-04-14T10:35:55.359Z,101766.25
2019-04-14T10:38:27.222Z,101755.22
2019-04-14T10:40:59.020Z,101748.22
2019-04-14T10:43:30.802Z,101749.84
2019-04-14T10:46:02.650Z,101750.74
2019-04-14T10:48:34.410Z,101756.59
2019-04-14T10:51:06.386Z,101758.09
2019-04-14T10:53:38.166Z,101763.15
2019-04-14T10:56:09.924Z,101768.53
2019-04-14T10:58:41.821Z,101763.26
2019-04-14T11:01:13.543Z,101761.52
2019-04-14T11:03:45.410Z,101755.39
2019-04-14T11:06:39.436Z,101761.77
2019-04-14T11:09:15.712Z,101763.77
2019-04-14T11:11:47.565Z,101764.95
2019-04-14T11:14:19.386Z,101760.45
2019-04-14T11:16:51.392Z,101761.30
2019-04-14T11:19:23.207Z,101759.70
2019-04-14T11:21:55.214Z,101767.33
2019-04-14T11:24:26.904Z,101755.41
2019-04-14T11:26:58.687Z,101763.61
2019-04-14T11:29:30.559Z,101762.03
2019-04-14T11:32:40.852Z,101752.63
2019-04-14T11:35:22.789Z,101754.61
2019-04-14T11:38:20.177Z,101752.59
2019-04-14T11:40:55.865Z,101753.50
2019-04-14T11:43:29.850Z,101748.31
2019-04-14T11:46:03.895Z,101750.09
2019-04-14T11:48:36.102Z,101752.73
2019-04-14T11:51:07.897Z,101747.16
2019-04-14T11:53:39.979Z,101749.25
2019-04-14T11:56:12.026Z,101741.36
2019-04-14T11:58:43.768Z,101740.64
2019-04-14T12:01:33.923Z,101746.20
2019-04-14T12:04:23.798Z,101747.64
2019-04-14T12:07:16.813Z,101756.55
2019-04-14T12:10:07.547Z,101759.41
2019-04-14T12:12:39.615Z,101752.92
2019-04-14T12:15:15.901Z,101760.64
2019-04-14T12:17:45.073Z,101755.16
2019-04-14T12:20:16.905Z,101762.03
2019-04-14T12:22:49.341Z,101762.69
2019-04-14T12:25:21.446Z,101757.03
2019-04-14T12:27:53.640Z,101757.47
2019-04-14T12:30:26.823Z,101756.64
2019-04-14T12:32:58.842Z,101753.98
2019-04-14T12:35:30.656Z,101738.23
2019-04-14T12:38:02.933Z,101757.58
2019-04-14T12:40:35.225Z,101761.26
2019-04-14T12:43:28.479Z,101750.23
2019-04-14T12:46:29.302Z,101748.72
2019-04-14T12:49:08.927Z,101760.45
2019-04-14T12:51:59.420Z,101754.80
2019-04-14T12:54:31.285Z,101748.63
2019-04-14T12:57:02.982Z,101753.92
2019-04-14T12:59:37.744Z,101749.80
2019-04-14T13:02:16.867Z,101749.80
2019-04-14T13:04:48.767Z,101746.20
2019-04-14T13:07:20.622Z,101749.58
2019-04-14T13:09:52.520Z,101747.42
2019-04-14T13:12:24.323Z,101751.02
2019-04-14T13:14:56.299Z,101748.92
2019-04-14T13:17:29.201Z,101743.45
2019-04-14T13:20:01.169Z,101739.67
2019-04-14T13:22:34.429Z,101735.70
2019-04-14T13:25:06.689Z,101736.93
2019-04-14T13:27:39.316Z,101735.98
2019-04-14T13:30:13.333Z,101733.05
2019-04-14T13:32:45.255Z,101735.39
2019-04-14T13:35:17.101Z,101738.46
2019-04-14T13:37:49.191Z,101744.91
2019-04-14T13:40:20.994Z,101740.09
2019-04-14T13:42:53.400Z,101727.77
2019-04-14T13:45:25.547Z,101734.80
2019-04-14T13:47:57.395Z,101731.45
2019-04-14T13:50:29.783Z,101729.84
2019-04-14T13:53:01.803Z,101734.30
2019-04-14T13:55:33.693Z,101735.64
2019-04-14T13:58:05.664Z,101734.14
2019-04-14T14:00:37.540Z,101732.45
2019-04-14T14:03:09.414Z,101728.75
2019-04-14T14:05:43.591Z,101737.73
2019-04-14T14:08:15.264Z,101727.74
2019-04-14T14:10:47.148Z,101729.81
2019-04-14T14:13:29.806Z,101731.55
2019-04-14T14:16:20.901Z,101726.70
2019-04-14T14:19:06.803Z,101724.37
2019-04-14T14:21:49.793Z,101731.75
2019-04-14T14:24:37.594Z,101721.73
2019-04-14T14:27:09.890Z,101718.69
2019-04-14T14:29:41.919Z,101725.92
2019-04-14T14:32:33.658Z,101725.22
2019-04-14T14:35:06.833Z,101724.11
2019-04-14T14:37:38.696Z,101727.65
2019-04-14T14:40:10.591Z,101724.94
2019-04-14T14:42:42.458Z,101726.20
2019-04-14T14:45:18.804Z,101730.41
2019-04-14T14:48:27.435Z,101720.54
2019-04-14T14:51:03.118Z,101721.14
2019-04-14T14:53:35.012Z,101727.25
2019-04-14T14:56:06.794Z,101730.85
2019-04-14T14:58:38.649Z,101719.13
2019-04-14T15:01:10.609Z,101716.87
2019-04-14T15:03:42.384Z,101721.38
2019-04-14T15:06:14.239Z,101721.83
2019-04-14T15:08:45.999Z,101713.40
2019-04-14T15:11:17.711Z,101722.63
2019-04-14T15:13:49.988Z,101709.27
2019-04-14T15:16:21.868Z,101726.25
2019-04-14T15:18:53.908Z,101723.86
2019-04-14T15:21:26.146Z,101724.09
2019-04-14T15:23:58.059Z,101722.36
2019-04-14T15:26:29.817Z,101727.95
2019-04-14T15:29:01.583Z,101732.66
2019-04-14T15:31:33.452Z,101731.97
2019-04-14T15:34:05.200Z,101737.58
2019-04-14T15:36:37.050Z,101737.49
2019-04-14T15:39:09.531Z,101732.68
2019-04-14T15:41:41.292Z,101738.20
2019-04-14T15:44:13.052Z,101741.24
2019-04-14T15:46:44.842Z,101740.73
2019-04-14T15:49:16.717Z,101738.06
2019-04-14T15:51:48.405Z,101736.62
2019-04-14T15:54:20.281Z,101736.77
2019-04-14T15:57:06.396Z,101735.19
2019-04-14T15:59:47.748Z,101732.73
2019-04-14T16:02:33.879Z,101737.48
2019-04-14T16:05:31.249Z,101737.52
2019-04-14T16:08:17.125Z,101743.02
2019-04-14T16:10:54.978Z,101743.72
2019-04-14T16:13:54.774Z,101739.94
2019-04-14T16:16:48.922Z,101739.18
2019-04-14T16:19:28.273Z,101745.39
2019-04-14T16:22:01.134Z,101742.55
2019-04-14T16:24:33.818Z,101736.14
2019-04-14T16:27:18.936Z,101740.00
2019-04-14T16:30:10.197Z,101734.52
2019-04-14T16:32:59.332Z,101738.53
2019-04-14T16:35:32.323Z,101740.23
2019-04-14T16:38:04.221Z,101747.16
2019-04-14T16:40:36.695Z,101746.91
2019-04-14T16:43:08.563Z,101758.59
2019-04-14T16:45:40.457Z,101758.74
2019-04-14T16:48:12.741Z,101755.02
2019-04-14T16:50:44.622Z,101756.00
2019-04-14T16:53:26.391Z,101756.80
2019-04-14T16:56:19.958Z,101755.16
2019-04-14T16:58:54.528Z,101762.90
2019-04-14T17:01:34.821Z,101766.98
2019-04-14T17:04:06.907Z,101767.13
2019-04-14T17:06:38.659Z,101769.34
2019-04-14T17:09:10.651Z,101774.89
2019-04-14T17:11:45.029Z,101772.22
2019-04-14T17:14:43.208Z,101776.17
2019-04-14T17:17:32.881Z,101782.89
2019-04-14T17:20:23.438Z,101781.52
2019-04-14T17:23:18.477Z,101777.70
2019-04-14T17:26:05.489Z,101781.17
2019-04-14T17:29:04.488Z,101788.92
2019-04-14T17:31:55.448Z,101787.41
2019-04-14T17:34:49.145Z,101795.38
2019-04-14T17:37:38.488Z,101800.48
2019-04-14T17:40:35.329Z,101805.91
2019-04-14T17:43:27.787Z,101810.27
2019-04-14T17:46:25.124Z,101811.53
2019-04-14T17:49:18.253Z,101808.65
2019-04-14T17:52:11.784Z,101814.23
2019-04-14T17:55:05.641Z,101819.30
2019-04-14T17:58:14.268Z,101830.36
2019-04-14T18:01:07.840Z,101830.36
2019-04-14T18:03:51.122Z,101830.25
2019-04-14T18:06:26.594Z,101834.81
2019-04-14T18:09:08.501Z,101835.12
2019-04-14T18:11:57.949Z,101842.47
2019-04-14T18:14:48.890Z,101853.86
2019-04-14T18:17:39.694Z,101854.53
2019-04-14T18:20:30.765Z,101862.74
2019-04-14T18:23:02.997Z,101873.77
2019-04-14T18:25:34.954Z,101875.95
2019-04-14T18:28:27.532Z,101875.45
2019-04-14T18:31:17.780Z,101880.39
2019-04-14T18:34:23.754Z,101885.72
2019-04-14T18:37:02.378Z,101889.11
2019-04-14T18:39:52.031Z,101893.22
2019-04-14T18:42:37.461Z,101894.36
2019-04-14T18:45:26.807Z,101902.37
2019-04-14T18:48:06.288Z,101898.77
2019-04-14T18:51:02.756Z,101900.52
2019-04-14T18:53:53.564Z,101900.09
2019-04-14T18:56:44.518Z,101912.98
2019-04-14T18:59:33.811Z,101920.09
2019-04-14T19:02:07.082Z,101920.19
2019-04-14T19:04:38.968Z,101922.39
2019-04-14T19:07:10.859Z,101925.27
2019-04-14T19:09:42.729Z,101930.41
2019-04-14T19:12:36.362Z,101927.51
2019-04-14T19:15:20.246Z,101930.44
2019-04-14T19:17:57.321Z,101938.02
2019-04-14T19:20:30.624Z,101940.50
2019-04-14T19:23:02.520Z,101942.02
2019-04-14T19:25:34.514Z,101945.31
2019-04-14T19:28:06.555Z,101943.14
2019-04-14T19:30:38.425Z,101943.64
2019-04-14T19:33:10.334Z,101951.00
2019-04-14T19:35:42.035Z,101954.26
2019-04-14T19:38:13.953Z,101962.95
2019-04-14T19:40:45.911Z,101964.56
2019-04-14T19:43:23.604Z,101959.86
2019-04-14T19:45:51.345Z,101965.33
2019-04-14T19:48:23.203Z,101962.41
2019-04-14T19:50:55.107Z,101964.25
2019-04-14T19:53:26.910Z,101966.29
2019-04-14T19:55:58.929Z,101973.25
2019-04-14T19:58:30.654Z,101976.52
2019-04-14T20:01:02.562Z,101978.19
2019-04-14T20:03:34.422Z,101984.33
2019-04-14T20:06:06.783Z,101982.43
2019-04-14T20:08:38.636Z,101983.06
2019-04-14T20:11:10.496Z,101985.13
2019-04-14T20:13:45.586Z,101995.18
2019-04-14T20:16:34.282Z,101995.02
2019-04-14T20:19:36.849Z,101996.52
2019-04-14T20:22:29.084Z,101996.52
2019-04-14T20:25:08.068Z,102001.98
2019-04-14T20:28:03.683Z,102001.26
2019-04-14T20:30:42.193Z,102005.30
2019-04-14T20:33:14.048Z,102009.72
2019-04-14T20:35:45.799Z,102012.31
2019-04-14T20:38:17.648Z,102023.00
2019-04-14T20:40:50.406Z,102011.21
2019-04-14T20:43:22.210Z,102017.73
2019-04-14T20:45:54.863Z,102019.87
2019-04-14T20:48:26.624Z,102020.00
2019-04-14T20:50:58.376Z,102028.20
2019-04-14T20:53:30.136Z,102036.39
2019-04-14T20:56:01.887Z,102037.42
2019-04-14T20:58:33.759Z,102040.30
2019-04-14T21:01:07.181Z,102040.81
2019-04-14T21:04:04.055Z,102038.30
2019-04-14T21:06:53.234Z,102045.64
2019-04-14T21:09:42.635Z,102042.52
2019-04-14T21:12:42.352Z,102046.43
2019-04-14T21:15:33.063Z,102047.06
2019-04-14T21:18:08.946Z,102048.14
2019-04-14T21:20:51.752Z,102051.98
2019-04-14T21:23:45.037Z,102053.70
2019-04-14T21:26:43.048Z,102052.89
2019-04-14T21:29:51.720Z,102065.50
2019-04-14T21:32:30.536Z,102063.12
2019-04-14T21:35:19.930Z,102060.08
2019-04-14T21:38:16.709Z,102062.62
2019-04-14T21:41:01.401Z,102064.05
2019-04-14T21:43:33.275Z,102067.13
2019-04-14T21:46:05.026Z,102068.94
2019-04-14T21:48:36.786Z,102070.73
2019-04-14T21:51:08.638Z,102074.35
2019-04-14T21:53:40.328Z,102068.38
2019-04-14T21:56:13.580Z,102077.23
2019-04-14T21:59:13.406Z,102073.33
2019-04-14T22:02:02.434Z,102084.86
2019-04-14T22:04:59.182Z,102077.85
2019-04-14T22:07:48.395Z,102081.67
2019-04-14T22:10:26.710Z,102089.17
2019-04-14T22:12:58.560Z,102089.75
2019-04-14T22:15:31.411Z,102087.75
2019-04-14T22:18:03.184Z,102092.02
2019-04-14T22:20:35.032Z,102092.05
2019-04-14T22:23:10.179Z,102089.69
2019-04-14T22:25:42.015Z,102092.30
2019-04-14T22:28:13.888Z,102092.38
2019-04-14T22:30:45.736Z,102094.05
2019-04-14T22:33:17.513Z,102094.16
2019-04-14T22:35:49.262Z,102102.08
2019-04-14T22:38:21.043Z,102104.05
2019-04-14T22:40:52.835Z,102097.11
2019-04-14T22:43:24.674Z,102109.16
2019-04-14T22:45:56.499Z,102103.98
2019-04-14T22:48:28.379Z,102103.36
2019-04-14T22:51:01.255Z,102101.72
2019-04-14T22:53:33.117Z,102108.34
2019-04-14T22:56:04.976Z,102106.89
2019-04-14T22:58:37.827Z,102101.88
2019-04-14T23:01:17.214Z,102107.08
2019-04-14T23:04:16.377Z,102108.05
2019-04-14T23:07:06.851Z,102104.21
2019-04-14T23:09:48.181Z,102112.58
2019-04-14T23:12:47.955Z,102113.56
2019-04-14T23:15:38.636Z,102116.75
2019-04-14T23:18:30.861Z,102114.27
2019-04-14T23:21:14.978Z,102119.53
2019-04-14T23:23:56.447Z,102120.02
2019-04-14T23:26:28.524Z,102123.77
2019-04-14T23:29:02.065Z,102116.84
2019-04-14T23:31:33.847Z,102119.21
2019-04-14T23:34:05.701Z,102118.56
2019-04-14T23:36:37.553Z,102116.20
2019-04-14T23:39:11.419Z,102119.48
2019-04-14T23:41:43.373Z,102117.20
2019-04-14T23:44:16.233Z,102118.84
2019-04-14T23:46:47.987Z,102117.25
2019-04-14T23:49:19.721Z,102123.88
2019-04-14T23:51:51.455Z,102122.05
2019-04-14T23:54:23.218Z,102125.64
2019-04-14T23:57:05.265Z,102129.23
2019-04-14T23:59:28.556Z,102124.47
